createdAt,value
2017-08-24T00:00:36.613Z,16.27
2017-08-24T00:03:04.188Z,22.83
2017-08-24T00:05:31.783Z,23.30
2017-08-24T00:07:59.396Z,23.67
2017-08-24T00:10:26.970Z,25.90
2017-08-24T00:12:54.546Z,26.20
2017-08-24T00:15:22.135Z,27.90
2017-08-24T00:17:50.468Z,25.23
2017-08-24T00:20:18.040Z,26.93
2017-08-24T00:22:46.030Z,27.87
2017-08-24T00:25:14.365Z,27.83
2017-08-24T00:27:41.949Z,27.77
2017-08-24T00:30:09.554Z,28.83
2017-08-24T00:32:37.122Z,27.20
2017-08-24T00:35:04.685Z,27.37
2017-08-24T00:37:32.272Z,28.23
2017-08-24T00:39:59.853Z,28.70
2017-08-24T00:42:27.421Z,28.43
2017-08-24T00:44:55.037Z,27.80
2017-08-24T00:47:22.619Z,27.47
2017-08-24T00:49:50.193Z,26.97
2017-08-24T00:52:17.788Z,27.47
2017-08-24T00:54:45.353Z,26.43
2017-08-24T00:57:12.921Z,27.73
2017-08-24T00:59:40.530Z,24.87
2017-08-24T01:02:08.113Z,24.60
2017-08-24T01:04:35.675Z,25.87
2017-08-24T01:07:03.304Z,25.77
2017-08-24T01:09:30.865Z,28.53
2017-08-24T01:11:58.449Z,25.40
2017-08-24T01:14:26.028Z,25.43
2017-08-24T01:16:53.601Z,25.00
2017-08-24T01:19:21.148Z,23.93
2017-08-24T01:21:48.753Z,22.10
2017-08-24T01:24:16.314Z,23.43
2017-08-24T01:26:43.882Z,24.00
2017-08-24T01:29:11.500Z,24.10
2017-08-24T01:31:39.088Z,23.00
2017-08-24T01:34:06.637Z,22.20
2017-08-24T01:36:34.252Z,22.80
2017-08-24T01:39:01.831Z,21.23
2017-08-24T01:41:29.390Z,20.97
2017-08-24T01:43:56.999Z,21.13
2017-08-24T01:46:24.566Z,23.40
2017-08-24T01:48:52.116Z,21.53
2017-08-24T01:51:19.733Z,21.97
2017-08-24T01:53:47.312Z,21.33
2017-08-24T01:56:14.886Z,21.33
2017-08-24T01:58:42.506Z,20.30
2017-08-24T02:01:10.078Z,21.40
2017-08-24T02:03:37.651Z,20.70
2017-08-24T02:06:05.370Z,20.47
2017-08-24T02:08:32.903Z,19.67
2017-08-24T02:11:00.454Z,21.50
2017-08-24T02:13:28.029Z,20.20
2017-08-24T02:15:55.564Z,19.30
2017-08-24T02:18:23.097Z,19.40
2017-08-24T02:20:50.672Z,19.47
2017-08-24T02:23:18.200Z,20.17
2017-08-24T02:25:45.732Z,20.60
2017-08-24T02:28:13.306Z,20.10
2017-08-24T02:30:40.833Z,20.20
2017-08-24T02:33:08.386Z,20.93
2017-08-24T02:35:35.946Z,21.17
2017-08-24T02:38:03.505Z,20.70
2017-08-24T02:40:31.063Z,20.90
2017-08-24T02:42:58.643Z,21.17
2017-08-24T02:45:26.197Z,22.37
2017-08-24T02:47:53.728Z,20.90
2017-08-24T02:50:21.304Z,23.33
2017-08-24T02:52:48.850Z,24.30
2017-08-24T02:55:16.383Z,21.50
2017-08-24T02:57:43.964Z,21.20
2017-08-24T03:00:11.508Z,21.83
2017-08-24T03:02:39.055Z,22.13
2017-08-24T03:05:06.637Z,21.27
2017-08-24T03:07:34.191Z,23.07
2017-08-24T03:10:01.727Z,23.33
2017-08-24T03:12:29.313Z,22.77
2017-08-24T03:14:56.848Z,26.30
2017-08-24T03:17:24.385Z,24.47
2017-08-24T03:19:51.964Z,25.20
2017-08-24T03:22:19.506Z,25.00
2017-08-24T03:24:47.044Z,27.00
2017-08-24T03:27:14.631Z,21.80
2017-08-24T03:29:42.169Z,23.23
2017-08-24T03:32:09.703Z,22.77
2017-08-24T03:34:37.279Z,19.03
2017-08-24T03:37:04.818Z,18.37
2017-08-24T03:39:32.344Z,17.73
2017-08-24T03:41:59.910Z,16.27
2017-08-24T03:44:27.440Z,16.90
2017-08-24T03:46:54.989Z,15.90
2017-08-24T03:49:22.548Z,14.27
2017-08-24T03:51:50.088Z,15.13
2017-08-24T03:54:17.638Z,12.70
2017-08-24T03:56:45.213Z,13.60
2017-08-24T03:59:12.750Z,13.40
2017-08-24T04:01:40.282Z,12.83
2017-08-24T04:04:07.867Z,14.47
2017-08-24T04:06:35.428Z,13.80
2017-08-24T04:09:02.965Z,15.90
2017-08-24T04:11:31.297Z,14.57
2017-08-24T04:13:58.855Z,14.57
2017-08-24T04:16:26.409Z,14.87
2017-08-24T04:18:53.986Z,13.53
2017-08-24T04:21:21.517Z,14.00
2017-08-24T04:23:49.052Z,14.77
2017-08-24T04:26:16.616Z,15.87
2017-08-24T04:28:44.155Z,13.33
2017-08-24T04:31:11.690Z,16.17
2017-08-24T04:33:39.254Z,14.80
2017-08-24T04:36:06.868Z,15.67
2017-08-24T04:38:34.408Z,16.70
2017-08-24T04:41:02.023Z,15.40
2017-08-24T04:43:29.548Z,17.30
2017-08-24T04:45:57.089Z,19.17
2017-08-24T04:48:24.645Z,16.73
2017-08-24T04:50:52.191Z,17.60
2017-08-24T04:53:19.746Z,16.87
2017-08-24T04:55:47.315Z,16.07
2017-08-24T04:58:14.862Z,14.87
2017-08-24T05:00:42.392Z,15.53
2017-08-24T05:03:09.980Z,16.00
2017-08-24T05:05:37.526Z,18.07
2017-08-24T05:08:05.065Z,16.80
2017-08-24T05:10:32.644Z,14.93
2017-08-24T05:13:00.191Z,18.43
2017-08-24T05:15:27.743Z,16.20
2017-08-24T05:17:55.313Z,15.00
2017-08-24T05:20:22.848Z,15.30
2017-08-24T05:22:50.377Z,14.17
2017-08-24T05:25:17.945Z,14.37
2017-08-24T05:27:45.544Z,14.87
2017-08-24T05:30:13.082Z,15.13
2017-08-24T05:32:40.996Z,15.93
2017-08-24T05:35:08.525Z,15.97
2017-08-24T05:37:36.071Z,15.60
2017-08-24T05:40:03.633Z,15.57
2017-08-24T05:42:31.175Z,14.53
2017-08-24T05:44:58.709Z,14.30
2017-08-24T05:47:26.284Z,14.27
2017-08-24T05:49:53.832Z,14.30
2017-08-24T05:52:21.364Z,15.30
2017-08-24T05:54:48.942Z,14.57
2017-08-24T05:57:16.489Z,14.23
2017-08-24T05:59:44.039Z,16.10
2017-08-24T06:02:11.610Z,14.27
2017-08-24T06:04:39.149Z,14.43
2017-08-24T06:07:06.676Z,13.80
2017-08-24T06:09:34.228Z,14.50
2017-08-24T06:12:01.770Z,12.60
2017-08-24T06:14:29.296Z,14.57
2017-08-24T06:16:56.902Z,12.80
2017-08-24T06:19:24.443Z,14.53
2017-08-24T06:21:51.992Z,14.43
2017-08-24T06:24:19.578Z,13.07
2017-08-24T06:26:47.123Z,14.20
2017-08-24T06:29:14.661Z,14.07
2017-08-24T06:31:42.243Z,12.80
2017-08-24T06:34:09.797Z,14.47
2017-08-24T06:36:37.358Z,12.60
2017-08-24T06:39:04.946Z,13.07
2017-08-24T06:41:33.254Z,14.40
2017-08-24T06:44:00.793Z,13.90
2017-08-24T06:46:28.357Z,13.27
2017-08-24T06:48:55.914Z,14.40
2017-08-24T06:51:23.463Z,13.10
2017-08-24T06:53:51.023Z,13.33
2017-08-24T06:56:18.588Z,13.13
2017-08-24T06:58:46.130Z,16.20
2017-08-24T07:01:13.698Z,14.20
2017-08-24T07:03:41.227Z,15.50
2017-08-24T07:06:08.769Z,13.67
2017-08-24T07:08:36.349Z,16.77
2017-08-24T07:11:03.899Z,14.70
2017-08-24T07:13:31.438Z,14.00
2017-08-24T07:15:59.784Z,14.67
2017-08-24T07:18:27.332Z,14.03
2017-08-24T07:20:54.882Z,14.93
2017-08-24T07:23:22.456Z,14.40
2017-08-24T07:25:50.010Z,13.33
2017-08-24T07:28:17.572Z,14.20
2017-08-24T07:30:45.142Z,15.23
2017-08-24T07:33:12.688Z,15.00
2017-08-24T07:35:40.220Z,15.73
2017-08-24T07:38:07.799Z,15.37
2017-08-24T07:40:35.338Z,15.23
2017-08-24T07:43:02.895Z,16.53
2017-08-24T07:45:30.479Z,16.13
2017-08-24T07:47:58.034Z,14.50
2017-08-24T07:50:25.569Z,15.53
2017-08-24T07:52:53.147Z,15.93
2017-08-24T07:55:21.482Z,14.83
2017-08-24T07:57:49.019Z,19.00
2017-08-24T08:00:16.617Z,18.70
2017-08-24T08:02:44.163Z,20.00
2017-08-24T08:05:11.715Z,20.93
2017-08-24T08:07:39.281Z,23.67
2017-08-24T08:10:06.813Z,20.50
2017-08-24T08:12:34.348Z,20.30
2017-08-24T08:15:01.933Z,19.57
2017-08-24T08:17:29.501Z,18.60
2017-08-24T08:19:57.027Z,17.67
2017-08-24T08:22:24.591Z,17.17
2017-08-24T08:24:52.129Z,16.80
2017-08-24T08:27:19.685Z,17.60
2017-08-24T08:29:47.263Z,17.83
2017-08-24T08:32:14.816Z,16.53
2017-08-24T08:34:42.353Z,17.10
2017-08-24T08:37:09.938Z,16.57
2017-08-24T08:39:37.476Z,15.73
2017-08-24T08:42:05.025Z,14.90
2017-08-24T08:44:32.673Z,14.17
2017-08-24T08:47:00.172Z,14.07
2017-08-24T08:49:27.724Z,14.90
2017-08-24T08:51:55.308Z,14.43
2017-08-24T08:54:22.845Z,14.30
2017-08-24T08:56:50.390Z,15.50
2017-08-24T08:59:17.971Z,12.80
2017-08-24T09:01:45.524Z,14.17
2017-08-24T09:04:13.085Z,14.70
2017-08-24T09:06:40.649Z,14.53
2017-08-24T09:09:08.186Z,15.17
2017-08-24T09:11:35.726Z,15.97
2017-08-24T09:14:03.300Z,16.23
2017-08-24T09:16:30.845Z,17.93
2017-08-24T09:18:58.397Z,16.23
2017-08-24T09:21:25.967Z,16.57
2017-08-24T09:23:53.514Z,14.03
2017-08-24T09:26:21.055Z,15.63
2017-08-24T09:28:48.635Z,17.20
2017-08-24T09:31:16.168Z,16.37
2017-08-24T09:33:43.707Z,17.20
2017-08-24T09:36:11.280Z,17.00
2017-08-24T09:38:38.843Z,16.30
2017-08-24T09:41:06.377Z,15.30
2017-08-24T09:43:33.959Z,18.47
2017-08-24T09:46:01.493Z,18.33
2017-08-24T09:48:29.059Z,17.40
2017-08-24T09:50:56.646Z,17.10
2017-08-24T09:53:24.176Z,18.00
2017-08-24T09:55:51.704Z,16.90
2017-08-24T09:58:19.272Z,17.60
2017-08-24T10:00:46.836Z,16.43
2017-08-24T10:03:14.392Z,16.30
2017-08-24T10:05:41.969Z,15.80
2017-08-24T10:08:09.552Z,16.60
2017-08-24T10:10:37.126Z,15.50
2017-08-24T10:13:04.720Z,15.00
2017-08-24T10:15:32.262Z,15.50
2017-08-24T10:17:59.803Z,14.20
2017-08-24T10:20:27.386Z,14.30
2017-08-24T10:22:54.924Z,14.23
2017-08-24T10:25:22.465Z,15.40
2017-08-24T10:27:50.030Z,14.30
2017-08-24T10:30:17.658Z,14.80
2017-08-24T10:32:45.146Z,14.40
2017-08-24T10:35:12.733Z,14.30
2017-08-24T10:37:40.290Z,13.57
2017-08-24T10:40:07.829Z,15.10
2017-08-24T10:42:35.411Z,14.50
2017-08-24T10:45:03.741Z,14.60
2017-08-24T10:47:31.285Z,15.00
2017-08-24T10:49:58.872Z,16.03
2017-08-24T10:52:26.433Z,14.87
2017-08-24T10:54:53.964Z,15.83
2017-08-24T10:57:21.533Z,14.60
2017-08-24T10:59:49.070Z,13.70
2017-08-24T11:02:16.613Z,15.83
2017-08-24T11:04:44.203Z,14.97
2017-08-24T11:07:11.791Z,15.00
2017-08-24T11:09:41.042Z,14.33
2017-08-24T11:12:08.613Z,14.33
2017-08-24T11:14:36.154Z,15.00
2017-08-24T11:17:03.739Z,16.63
2017-08-24T11:19:32.088Z,14.87
2017-08-24T11:21:59.632Z,15.97
2017-08-24T11:24:27.190Z,15.23
2017-08-24T11:26:54.750Z,14.50
2017-08-24T11:29:22.304Z,15.37
2017-08-24T11:31:49.866Z,13.83
2017-08-24T11:34:17.491Z,13.43
2017-08-24T11:36:45.029Z,14.50
2017-08-24T11:39:12.605Z,14.10
2017-08-24T11:41:40.173Z,14.20
2017-08-24T11:44:07.725Z,12.30
2017-08-24T11:46:35.360Z,13.77
2017-08-24T11:49:02.978Z,13.53
2017-08-24T11:51:30.605Z,13.57
2017-08-24T11:53:58.215Z,12.40
2017-08-24T11:56:25.818Z,14.00
2017-08-24T11:58:53.354Z,13.90
2017-08-24T12:01:20.910Z,13.23
2017-08-24T12:03:48.484Z,13.63
2017-08-24T12:06:16.025Z,12.70
2017-08-24T12:08:43.560Z,12.60
2017-08-24T12:11:11.157Z,11.50
2017-08-24T12:13:38.752Z,10.47
2017-08-24T12:16:06.307Z,11.50
2017-08-24T12:18:33.954Z,11.47
2017-08-24T12:21:01.518Z,12.20
2017-08-24T12:23:29.110Z,14.20
2017-08-24T12:25:56.715Z,12.37
2017-08-24T12:28:24.313Z,12.73
2017-08-24T12:30:51.869Z,11.63
2017-08-24T12:33:19.436Z,12.07
2017-08-24T12:35:46.973Z,11.50
2017-08-24T12:38:14.517Z,10.47
2017-08-24T12:40:42.132Z,12.10
2017-08-24T12:43:09.692Z,10.60
2017-08-24T12:45:37.246Z,11.53
2017-08-24T12:48:04.812Z,10.97
2017-08-24T12:50:32.356Z,9.93
2017-08-24T12:52:59.881Z,9.80
2017-08-24T12:55:27.444Z,10.17
2017-08-24T12:57:55.072Z,13.17
2017-08-24T13:00:22.635Z,12.90
2017-08-24T13:02:50.197Z,12.73
2017-08-24T13:05:17.731Z,12.30
2017-08-24T13:07:45.283Z,11.43
2017-08-24T13:10:12.873Z,13.43
2017-08-24T13:12:40.403Z,12.90
2017-08-24T13:15:07.961Z,12.17
2017-08-24T13:17:35.536Z,9.80
2017-08-24T13:20:03.074Z,12.50
2017-08-24T13:22:30.629Z,12.07
2017-08-24T13:24:58.211Z,9.50
2017-08-24T13:27:25.744Z,11.83
2017-08-24T13:29:53.280Z,10.00
2017-08-24T13:32:20.868Z,10.70
2017-08-24T13:34:49.170Z,9.90
2017-08-24T13:37:16.700Z,11.60
2017-08-24T13:39:44.284Z,11.00
2017-08-24T13:42:11.834Z,11.83
2017-08-24T13:44:39.366Z,8.83
2017-08-24T13:47:06.928Z,12.17
2017-08-24T13:49:34.463Z,12.10
2017-08-24T13:52:01.997Z,9.77
2017-08-24T13:54:29.581Z,10.73
2017-08-24T13:56:57.136Z,10.10
2017-08-24T13:59:24.676Z,9.80
2017-08-24T14:01:53.004Z,10.37
2017-08-24T14:04:20.558Z,12.17
2017-08-24T14:06:48.131Z,9.67
2017-08-24T14:09:15.719Z,11.07
2017-08-24T14:11:43.255Z,9.20
2017-08-24T14:14:10.798Z,10.10
2017-08-24T14:16:38.388Z,12.20
2017-08-24T14:19:05.949Z,10.53
2017-08-24T14:21:33.486Z,10.30
2017-08-24T14:24:01.079Z,10.30
2017-08-24T14:26:28.642Z,10.97
2017-08-24T14:28:56.177Z,10.10
2017-08-24T14:31:23.752Z,9.93
2017-08-24T14:33:51.298Z,9.47
2017-08-24T14:36:18.851Z,10.07
2017-08-24T14:38:47.277Z,9.30
2017-08-24T14:41:14.860Z,9.67
2017-08-24T14:43:42.391Z,9.47
2017-08-24T14:46:09.954Z,8.93
2017-08-24T14:48:37.484Z,8.73
2017-08-24T14:51:05.035Z,8.07
2017-08-24T14:53:32.616Z,8.80
2017-08-24T14:56:00.167Z,9.10
2017-08-24T14:58:27.710Z,9.30
2017-08-24T15:00:56.055Z,7.97
2017-08-24T15:03:23.592Z,8.03
2017-08-24T15:05:51.126Z,9.90
2017-08-24T15:08:18.711Z,8.60
2017-08-24T15:10:46.354Z,8.53
2017-08-24T15:13:13.905Z,8.10
2017-08-24T15:15:41.491Z,8.47
2017-08-24T15:18:09.026Z,8.83
2017-08-24T15:20:36.577Z,7.23
2017-08-24T15:23:04.143Z,7.20
2017-08-24T15:25:31.689Z,8.60
2017-08-24T15:27:59.234Z,7.80
2017-08-24T15:30:26.808Z,7.13
2017-08-24T15:32:54.348Z,7.33
2017-08-24T15:35:21.896Z,7.40
2017-08-24T15:37:49.471Z,7.47
2017-08-24T15:40:17.005Z,9.43
2017-08-24T15:42:44.545Z,7.60
2017-08-24T15:45:12.116Z,7.70
2017-08-24T15:47:39.655Z,7.17
2017-08-24T15:50:07.207Z,7.70
2017-08-24T15:52:34.787Z,6.80
2017-08-24T15:55:02.340Z,5.60
2017-08-24T15:57:29.901Z,5.97
2017-08-24T15:59:57.475Z,9.50
2017-08-24T16:02:25.007Z,5.97
2017-08-24T16:04:53.332Z,6.67
2017-08-24T16:07:20.911Z,6.07
2017-08-24T16:09:48.442Z,6.83
2017-08-24T16:12:15.996Z,6.40
2017-08-24T16:14:43.552Z,6.73
2017-08-24T16:17:11.084Z,7.30
2017-08-24T16:19:38.608Z,7.43
2017-08-24T16:22:06.173Z,7.30
2017-08-24T16:24:33.707Z,8.10
2017-08-24T16:27:01.249Z,7.47
2017-08-24T16:29:28.809Z,8.63
2017-08-24T16:31:57.125Z,9.20
2017-08-24T16:34:24.664Z,7.27
2017-08-24T16:36:52.251Z,8.10
2017-08-24T16:39:19.802Z,6.90
2017-08-24T16:41:47.354Z,6.57
2017-08-24T16:44:14.934Z,7.43
2017-08-24T16:46:42.468Z,6.60
2017-08-24T16:49:10.016Z,6.70
2017-08-24T16:51:37.594Z,6.07
2017-08-24T16:54:05.142Z,6.13
2017-08-24T16:56:33.461Z,7.23
2017-08-24T16:59:01.043Z,6.70
2017-08-24T17:01:28.573Z,7.07
2017-08-24T17:03:56.134Z,7.30
2017-08-24T17:06:23.729Z,7.37
2017-08-24T17:08:51.288Z,6.80
2017-08-24T17:11:18.841Z,7.00
2017-08-24T17:13:46.429Z,7.10
2017-08-24T17:16:13.985Z,7.90
2017-08-24T17:18:41.539Z,6.43
2017-08-24T17:21:09.112Z,7.03
2017-08-24T17:23:36.657Z,8.00
2017-08-24T17:26:04.180Z,9.10
2017-08-24T17:28:31.763Z,7.50
2017-08-24T17:30:59.293Z,7.87
2017-08-24T17:33:27.603Z,10.00
2017-08-24T17:35:55.187Z,8.60
2017-08-24T17:38:22.735Z,8.23
2017-08-24T17:40:50.289Z,8.10
2017-08-24T17:43:17.850Z,7.20
2017-08-24T17:45:45.396Z,7.53
2017-08-24T17:48:12.971Z,6.97
2017-08-24T17:50:40.536Z,8.10
2017-08-24T17:53:08.079Z,7.67
2017-08-24T17:55:35.643Z,7.67
2017-08-24T17:58:03.211Z,7.03
2017-08-24T18:00:30.744Z,8.50
2017-08-24T18:02:58.331Z,8.23
2017-08-24T18:05:25.890Z,7.03
2017-08-24T18:07:53.426Z,6.93
2017-08-24T18:10:20.948Z,7.30
2017-08-24T18:12:48.513Z,8.83
2017-08-24T18:15:16.060Z,7.97
2017-08-24T18:17:43.594Z,7.53
2017-08-24T18:20:11.178Z,7.20
2017-08-24T18:22:45.105Z,7.93
2017-08-24T18:25:13.141Z,6.80
2017-08-24T18:27:40.674Z,7.00
2017-08-24T18:30:08.225Z,7.03
2017-08-24T18:32:35.802Z,7.50
2017-08-24T18:35:03.355Z,7.67
2017-08-24T18:37:30.886Z,8.33
2017-08-24T18:39:58.457Z,7.00
2017-08-24T18:42:25.994Z,7.90
2017-08-24T18:44:53.532Z,6.87
2017-08-24T18:47:21.115Z,7.20
2017-08-24T18:49:48.676Z,7.83
2017-08-24T18:52:16.216Z,7.17
2017-08-24T18:54:43.800Z,7.63
2017-08-24T18:57:11.332Z,8.70
2017-08-24T18:59:49.526Z,7.80
2017-08-24T19:02:17.075Z,7.07
2017-08-24T19:04:44.622Z,7.40
2017-08-24T19:07:12.185Z,7.30
2017-08-24T19:09:39.759Z,7.73
2017-08-24T19:12:07.285Z,8.70
2017-08-24T19:14:34.862Z,9.60
2017-08-24T19:17:02.405Z,9.20
2017-08-24T19:19:31.691Z,8.30
2017-08-24T19:22:00.905Z,7.83
2017-08-24T19:24:30.096Z,7.50
2017-08-24T19:26:59.280Z,7.40
2017-08-24T19:29:26.844Z,7.40
2017-08-24T19:31:54.393Z,6.43
2017-08-24T19:34:21.963Z,7.00
2017-08-24T19:36:49.584Z,6.73
2017-08-24T19:39:17.120Z,5.30
2017-08-24T19:41:44.784Z,5.70
2017-08-24T19:44:12.373Z,5.03
2017-08-24T19:46:39.908Z,5.43
2017-08-24T19:49:07.512Z,3.90
2017-08-24T19:51:35.065Z,4.67
2017-08-24T19:54:02.619Z,3.80
2017-08-24T19:56:30.205Z,3.27
2017-08-24T19:58:57.921Z,2.97
2017-08-24T20:01:25.462Z,3.70
2017-08-24T20:03:52.998Z,3.60
2017-08-24T20:06:20.569Z,3.33
2017-08-24T20:08:48.876Z,3.30
2017-08-24T20:11:16.456Z,2.83
2017-08-24T20:13:44.022Z,3.43
2017-08-24T20:16:11.574Z,3.20
2017-08-24T20:18:39.265Z,3.30
2017-08-24T20:21:06.857Z,3.23
2017-08-24T20:23:34.411Z,3.33
2017-08-24T20:26:01.944Z,3.53
2017-08-24T20:28:29.583Z,4.07
2017-08-24T20:30:57.148Z,3.10
2017-08-24T20:33:24.709Z,3.33
2017-08-24T20:35:52.297Z,3.23
2017-08-24T20:38:19.845Z,3.20
2017-08-24T20:40:47.400Z,3.43
2017-08-24T20:43:14.975Z,3.30
2017-08-24T20:45:42.523Z,4.00
2017-08-24T20:48:10.077Z,3.27
2017-08-24T20:50:37.643Z,4.07
2017-08-24T20:53:05.188Z,3.70
2017-08-24T20:55:32.731Z,3.93
2017-08-24T20:58:00.313Z,3.30
2017-08-24T21:00:27.864Z,3.30
2017-08-24T21:02:55.396Z,3.10
2017-08-24T21:05:22.960Z,2.87
2017-08-24T21:07:50.513Z,3.40
2017-08-24T21:10:18.054Z,3.07
2017-08-24T21:12:45.627Z,3.40
2017-08-24T21:15:13.178Z,3.47
2017-08-24T21:17:40.728Z,3.40
2017-08-24T21:20:08.315Z,3.37
2017-08-24T21:22:35.841Z,3.00
2017-08-24T21:25:03.386Z,3.90
2017-08-24T21:27:30.942Z,4.93
2017-08-24T21:29:58.491Z,4.53
2017-08-24T21:32:26.021Z,4.30
2017-08-24T21:34:53.590Z,4.40
2017-08-24T21:37:21.136Z,3.57
2017-08-24T21:39:48.945Z,3.70
2017-08-24T21:42:17.284Z,3.73
2017-08-24T21:44:44.820Z,4.13
2017-08-24T21:47:12.343Z,5.17
2017-08-24T21:49:39.900Z,4.23
2017-08-24T21:52:07.425Z,3.90
2017-08-24T21:54:34.964Z,3.60
2017-08-24T21:57:02.548Z,4.00
2017-08-24T21:59:30.095Z,4.40
2017-08-24T22:01:57.650Z,4.17
2017-08-24T22:04:25.224Z,3.70
2017-08-24T22:06:52.753Z,3.10
2017-08-24T22:09:20.279Z,3.10
2017-08-24T22:11:47.851Z,3.47
2017-08-24T22:14:15.405Z,4.27
2017-08-24T22:16:42.932Z,3.17
2017-08-24T22:19:10.518Z,3.40
2017-08-24T22:21:38.049Z,3.77
2017-08-24T22:24:05.605Z,3.83
2017-08-24T22:26:33.164Z,5.10
2017-08-24T22:29:00.713Z,4.23
2017-08-24T22:31:29.027Z,3.97
2017-08-24T22:33:56.599Z,3.13
2017-08-24T22:36:24.134Z,4.00
2017-08-24T22:38:51.670Z,3.20
2017-08-24T22:41:19.244Z,3.53
2017-08-24T22:43:46.804Z,4.00
2017-08-24T22:46:14.341Z,3.00
2017-08-24T22:48:41.907Z,3.43
2017-08-24T22:51:09.428Z,3.23
2017-08-24T22:53:42.799Z,3.00
2017-08-24T22:56:15.902Z,3.13
2017-08-24T22:58:49.084Z,3.53
2017-08-24T23:01:22.234Z,3.73
2017-08-24T23:03:55.472Z,2.83
2017-08-24T23:06:22.998Z,3.37
2017-08-24T23:08:50.529Z,3.43
2017-08-24T23:11:18.108Z,3.40
2017-08-24T23:13:45.637Z,3.20
2017-08-24T23:16:13.190Z,3.30
2017-08-24T23:18:40.758Z,3.43
2017-08-24T23:21:08.288Z,4.03
2017-08-24T23:23:35.832Z,4.10
2017-08-24T23:26:03.415Z,3.00
2017-08-24T23:28:30.953Z,4.00
2017-08-24T23:30:58.490Z,3.93
2017-08-24T23:33:26.071Z,6.30
2017-08-24T23:35:53.622Z,5.90
2017-08-24T23:38:21.155Z,4.23
2017-08-24T23:40:48.723Z,4.80
2017-08-24T23:43:16.251Z,4.23
2017-08-24T23:45:43.797Z,4.73
2017-08-24T23:48:11.377Z,3.73
2017-08-24T23:50:38.912Z,5.40
2017-08-24T23:53:06.456Z,4.40
2017-08-24T23:55:34.013Z,4.43
2017-08-24T23:58:01.545Z,4.70
